createdAt,value
2022-10-09T00:00:10.594Z,101153.13
2022-10-09T00:01:20.783Z,101153.97
2022-10-09T00:02:23.922Z,101150.50
2022-10-09T00:03:26.964Z,101156.06
2022-10-09T00:04:30.177Z,101157.50
2022-10-09T00:05:33.438Z,101159.31
2022-10-09T00:06:36.602Z,101166.88
2022-10-09T00:07:39.612Z,101167.44
2022-10-09T00:08:43.818Z,101167.97
2022-10-09T00:09:47.338Z,101166.16
2022-10-09T00:10:50.376Z,101174.88
2022-10-09T00:11:53.562Z,101169.28
2022-10-09T00:12:57.029Z,101171.28
2022-10-09T00:14:01.141Z,101173.06
2022-10-09T00:15:04.557Z,101170.31
2022-10-09T00:16:11.231Z,101181.47
2022-10-09T00:17:14.084Z,101178.69
2022-10-09T00:18:18.521Z,101182.09
2022-10-09T00:19:21.690Z,101180.44
2022-10-09T00:20:24.685Z,101183.13
2022-10-09T00:21:33.516Z,101183.91
2022-10-09T00:22:36.556Z,101189.06
2022-10-09T00:23:39.457Z,101179.88
2022-10-09T00:24:43.565Z,101184.25
2022-10-09T00:26:04.633Z,101171.06
2022-10-09T00:27:07.411Z,101179.63
2022-10-09T00:28:10.409Z,101178.91
2022-10-09T00:29:13.297Z,101179.53
2022-10-09T00:30:16.361Z,101177.00
2022-10-09T00:31:20.331Z,101181.34
2022-10-09T00:32:23.532Z,101187.31
2022-10-09T00:33:26.382Z,101184.56
2022-10-09T00:34:29.469Z,101187.22
2022-10-09T00:35:32.458Z,101193.25
2022-10-09T00:36:35.377Z,101196.66
2022-10-09T00:37:38.410Z,101194.03
2022-10-09T00:38:41.677Z,101198.63
2022-10-09T00:39:44.673Z,101202.81
2022-10-09T00:40:47.619Z,101197.63
2022-10-09T00:41:50.543Z,101199.78
2022-10-09T00:42:58.810Z,101205.19
2022-10-09T00:44:23.506Z,101198.16
2022-10-09T00:45:27.334Z,101199.19
2022-10-09T00:46:38.482Z,101204.00
2022-10-09T00:47:46.792Z,101199.72
2022-10-09T00:49:05.929Z,101200.59
2022-10-09T00:50:15.004Z,101196.25
2022-10-09T00:51:17.889Z,101206.09
2022-10-09T00:52:23.087Z,101202.63
2022-10-09T00:53:29.928Z,101203.59
2022-10-09T00:54:37.626Z,101201.22
2022-10-09T00:55:40.695Z,101195.19
2022-10-09T00:56:44.004Z,101205.75
2022-10-09T00:57:47.159Z,101197.50
2022-10-09T00:58:55.337Z,101196.81
2022-10-09T01:00:01.889Z,101205.59
2022-10-09T01:01:05.048Z,101201.38
2022-10-09T01:02:08.109Z,101202.13
2022-10-09T01:03:11.316Z,101200.31
2022-10-09T01:04:14.843Z,101200.06
2022-10-09T01:05:18.334Z,101202.22
2022-10-09T01:06:48.547Z,101205.72
2022-10-09T01:08:15.112Z,101200.34
2022-10-09T01:09:35.551Z,101207.31
2022-10-09T01:10:53.481Z,101212.34
2022-10-09T01:12:08.497Z,101221.94
2022-10-09T01:13:32.968Z,101214.63
2022-10-09T01:15:17.162Z,101216.19
2022-10-09T01:16:28.449Z,101214.47
2022-10-09T01:18:04.160Z,101218.69
2022-10-09T01:19:50.859Z,101220.13
2022-10-09T01:21:15.015Z,101222.38
2022-10-09T01:22:46.580Z,101228.53
2022-10-09T01:24:24.614Z,101232.88
2022-10-09T01:25:45.274Z,101237.28
2022-10-09T01:27:00.622Z,101231.31
2022-10-09T01:28:06.920Z,101232.25
2022-10-09T01:29:12.035Z,101240.34
2022-10-09T01:30:15.006Z,101228.78
2022-10-09T01:31:20.937Z,101234.00
2022-10-09T01:32:31.571Z,101238.69
2022-10-09T01:33:34.864Z,101227.56
2022-10-09T01:34:40.847Z,101231.31
2022-10-09T01:35:46.542Z,101231.44
2022-10-09T01:36:51.351Z,101235.00
2022-10-09T01:37:56.183Z,101228.00
2022-10-09T01:39:02.869Z,101227.94
2022-10-09T01:40:07.500Z,101229.59
2022-10-09T01:41:10.919Z,101232.09
2022-10-09T01:42:15.326Z,101232.84
2022-10-09T01:43:18.347Z,101236.25
2022-10-09T01:44:28.981Z,101236.84
2022-10-09T01:45:43.361Z,101237.69
2022-10-09T01:46:46.909Z,101241.81
2022-10-09T01:47:49.965Z,101237.38
2022-10-09T01:49:32.765Z,101243.31
2022-10-09T01:50:45.133Z,101245.00
2022-10-09T01:52:00.457Z,101244.91
2022-10-09T01:53:19.328Z,101248.28
2022-10-09T01:54:52.327Z,101240.91
2022-10-09T01:56:19.095Z,101241.94
2022-10-09T01:57:33.612Z,101246.16
2022-10-09T01:58:51.460Z,101249.78
2022-10-09T01:59:58.589Z,101245.34
2022-10-09T02:01:07.180Z,101248.84
2022-10-09T02:02:11.651Z,101245.22
2022-10-09T02:03:16.619Z,101256.16
2022-10-09T02:04:20.332Z,101258.75
2022-10-09T02:05:28.087Z,101253.41
2022-10-09T02:06:32.478Z,101253.38
2022-10-09T02:07:35.706Z,101256.75
2022-10-09T02:08:41.201Z,101259.34
2022-10-09T02:09:46.019Z,101253.91
2022-10-09T02:10:56.470Z,101259.41
2022-10-09T02:12:06.922Z,101264.00
2022-10-09T02:13:10.213Z,101256.22
2022-10-09T02:14:13.409Z,101267.34
2022-10-09T02:15:16.355Z,101270.66
2022-10-09T02:16:46.667Z,101269.13
2022-10-09T02:17:53.085Z,101272.25
2022-10-09T02:19:30.438Z,101273.38
2022-10-09T02:20:37.499Z,101268.13
2022-10-09T02:21:48.654Z,101273.69
2022-10-09T02:22:55.697Z,101276.97
2022-10-09T02:23:59.835Z,101272.00
2022-10-09T02:25:06.667Z,101278.88
2022-10-09T02:26:11.836Z,101276.66
2022-10-09T02:27:16.336Z,101274.78
2022-10-09T02:28:19.687Z,101283.94
2022-10-09T02:29:23.080Z,101283.44
2022-10-09T02:30:36.211Z,101281.63
2022-10-09T02:31:41.905Z,101282.50
2022-10-09T02:32:44.898Z,101282.81
2022-10-09T02:33:59.250Z,101284.72
2022-10-09T02:35:02.377Z,101287.59
2022-10-09T02:36:05.714Z,101298.00
2022-10-09T02:37:09.234Z,101295.34
2022-10-09T02:38:12.090Z,101299.78
2022-10-09T02:39:15.342Z,101296.31
2022-10-09T02:40:18.157Z,101297.81
2022-10-09T02:41:21.989Z,101306.38
2022-10-09T02:42:26.056Z,101303.00
2022-10-09T02:43:29.470Z,101306.63
2022-10-09T02:44:32.311Z,101307.47
2022-10-09T02:45:35.209Z,101304.25
2022-10-09T02:46:38.607Z,101306.09
2022-10-09T02:47:41.629Z,101304.31
2022-10-09T02:48:45.166Z,101309.50
2022-10-09T02:49:48.158Z,101305.31
2022-10-09T02:50:50.993Z,101305.47
2022-10-09T02:51:53.987Z,101307.25
2022-10-09T02:52:57.184Z,101302.06
2022-10-09T02:54:00.208Z,101309.47
2022-10-09T02:55:03.395Z,101309.56
2022-10-09T02:56:06.489Z,101314.47
2022-10-09T02:57:09.479Z,101310.81
2022-10-09T02:58:12.464Z,101312.78
2022-10-09T02:59:15.528Z,101316.25
2022-10-09T03:00:18.697Z,101317.59
2022-10-09T03:01:21.802Z,101321.63
2022-10-09T03:02:25.091Z,101321.69
2022-10-09T03:03:28.232Z,101320.81
2022-10-09T03:04:31.054Z,101324.25
2022-10-09T03:05:33.997Z,101324.25
2022-10-09T03:06:37.683Z,101325.75
2022-10-09T03:07:40.812Z,101330.50
2022-10-09T03:08:47.613Z,101331.84
2022-10-09T03:09:50.783Z,101332.44
2022-10-09T03:10:53.720Z,101328.06
2022-10-09T03:11:56.886Z,101331.22
2022-10-09T03:12:59.987Z,101335.41
2022-10-09T03:14:02.940Z,101332.66
2022-10-09T03:15:06.679Z,101341.31
2022-10-09T03:16:14.430Z,101343.09
2022-10-09T03:17:17.387Z,101339.44
2022-10-09T03:18:20.566Z,101346.34
2022-10-09T03:19:23.320Z,101344.78
2022-10-09T03:20:26.306Z,101339.47
2022-10-09T03:21:30.248Z,101342.88
2022-10-09T03:22:33.291Z,101343.72
2022-10-09T03:23:36.579Z,101351.53
2022-10-09T03:24:39.560Z,101350.56
2022-10-09T03:25:42.757Z,101348.72
2022-10-09T03:26:45.760Z,101349.63
2022-10-09T03:27:49.612Z,101353.09
2022-10-09T03:28:54.660Z,101353.09
2022-10-09T03:29:58.738Z,101354.88
2022-10-09T03:31:01.682Z,101355.66
2022-10-09T03:32:04.737Z,101359.28
2022-10-09T03:33:07.725Z,101361.00
2022-10-09T03:34:13.868Z,101360.94
2022-10-09T03:35:16.883Z,101364.84
2022-10-09T03:36:20.495Z,101363.09
2022-10-09T03:37:23.502Z,101367.47
2022-10-09T03:38:26.527Z,101369.28
2022-10-09T03:39:29.392Z,101365.78
2022-10-09T03:40:32.589Z,101368.47
2022-10-09T03:41:35.469Z,101367.25
2022-10-09T03:42:38.622Z,101358.84
2022-10-09T03:43:41.630Z,101371.19
2022-10-09T03:44:44.568Z,101364.25
2022-10-09T03:45:47.776Z,101359.97
2022-10-09T03:46:52.570Z,101373.25
2022-10-09T03:47:55.597Z,101372.06
2022-10-09T03:48:58.473Z,101376.72
2022-10-09T03:50:01.384Z,101374.41
2022-10-09T03:51:04.624Z,101375.47
2022-10-09T03:52:07.595Z,101362.56
2022-10-09T03:53:15.295Z,101366.28
2022-10-09T03:54:18.321Z,101373.53
2022-10-09T03:55:21.230Z,101369.47
2022-10-09T03:56:24.080Z,101376.66
2022-10-09T03:57:26.915Z,101373.28
2022-10-09T03:58:29.855Z,101374.34
2022-10-09T03:59:32.790Z,101377.28
2022-10-09T04:00:36.451Z,101381.03
2022-10-09T04:01:39.527Z,101377.53
2022-10-09T04:02:42.616Z,101381.28
2022-10-09T04:03:45.517Z,101377.38
2022-10-09T04:04:48.487Z,101381.94
2022-10-09T04:05:51.385Z,101381.94
2022-10-09T04:06:54.236Z,101381.53
2022-10-09T04:07:57.293Z,101377.34
2022-10-09T04:09:01.320Z,101381.78
2022-10-09T04:10:05.318Z,101382.38
2022-10-09T04:11:08.267Z,101389.03
2022-10-09T04:12:11.067Z,101390.63
2022-10-09T04:13:13.998Z,101390.81
2022-10-09T04:14:16.954Z,101393.66
2022-10-09T04:15:20.171Z,101397.00
2022-10-09T04:16:23.097Z,101396.22
2022-10-09T04:17:26.100Z,101395.28
2022-10-09T04:18:29.046Z,101395.28
2022-10-09T04:19:31.892Z,101392.78
2022-10-09T04:20:34.917Z,101395.44
2022-10-09T04:21:37.754Z,101392.97
2022-10-09T04:22:40.855Z,101401.31
2022-10-09T04:23:43.856Z,101388.03
2022-10-09T04:24:46.805Z,101397.34
2022-10-09T04:25:54.937Z,101388.63
2022-10-09T04:26:57.732Z,101404.03
2022-10-09T04:28:00.561Z,101395.09
2022-10-09T04:29:03.501Z,101403.59
2022-10-09T04:30:07.142Z,101406.34
2022-10-09T04:31:10.145Z,101403.78
2022-10-09T04:32:13.157Z,101415.97
2022-10-09T04:33:16.098Z,101413.19
2022-10-09T04:34:18.999Z,101414.59
2022-10-09T04:35:21.971Z,101411.13
2022-10-09T04:36:25.139Z,101416.41
2022-10-09T04:37:28.147Z,101419.06
2022-10-09T04:38:31.859Z,101412.16
2022-10-09T04:39:34.946Z,101416.53
2022-10-09T04:40:38.455Z,101415.63
2022-10-09T04:41:41.680Z,101421.72
2022-10-09T04:42:44.781Z,101420.78
2022-10-09T04:43:47.716Z,101422.16
2022-10-09T04:44:50.631Z,101421.06
2022-10-09T04:45:54.771Z,101428.06
2022-10-09T04:46:57.794Z,101420.38
2022-10-09T04:48:00.777Z,101424.78
2022-10-09T04:49:04.111Z,101425.72
2022-10-09T04:50:07.943Z,101423.00
2022-10-09T04:51:11.676Z,101430.09
2022-10-09T04:52:14.436Z,101427.47
2022-10-09T04:53:17.740Z,101432.78
2022-10-09T04:54:20.725Z,101418.41
2022-10-09T04:55:23.778Z,101426.13
2022-10-09T04:56:26.689Z,101435.22
2022-10-09T04:57:29.765Z,101426.47
2022-10-09T04:58:32.674Z,101438.88
2022-10-09T04:59:35.818Z,101440.56
2022-10-09T05:00:46.086Z,101430.88
2022-10-09T05:01:49.029Z,101436.22
2022-10-09T05:02:52.275Z,101442.44
2022-10-09T05:03:56.067Z,101450.31
2022-10-09T05:04:59.148Z,101451.22
2022-10-09T05:06:04.145Z,101443.34
2022-10-09T05:07:07.037Z,101445.97
2022-10-09T05:08:09.924Z,101449.53
2022-10-09T05:09:13.035Z,101457.28
2022-10-09T05:10:16.055Z,101451.16
2022-10-09T05:11:24.372Z,101458.16
2022-10-09T05:12:27.502Z,101463.59
2022-10-09T05:13:37.239Z,101465.44
2022-10-09T05:14:40.147Z,101471.84
2022-10-09T05:15:43.237Z,101465.63
2022-10-09T05:17:08.809Z,101466.47
2022-10-09T05:18:08.933Z,101468.31
2022-10-09T05:19:11.782Z,101474.38
2022-10-09T05:20:14.944Z,101477.50
2022-10-09T05:21:18.263Z,101481.41
2022-10-09T05:22:21.237Z,101480.22
2022-10-09T05:23:24.482Z,101481.31
2022-10-09T05:24:28.624Z,101482.84
2022-10-09T05:25:32.045Z,101487.22
2022-10-09T05:26:34.936Z,101485.88
2022-10-09T05:27:38.123Z,101493.41
2022-10-09T05:28:41.387Z,101493.53
2022-10-09T05:29:44.443Z,101492.69
2022-10-09T05:30:47.525Z,101492.03
2022-10-09T05:31:50.482Z,101493.72
2022-10-09T05:32:53.363Z,101496.44
2022-10-09T05:34:00.199Z,101501.75
2022-10-09T05:35:04.690Z,101506.00
2022-10-09T05:36:07.862Z,101492.97
2022-10-09T05:37:10.728Z,101502.25
2022-10-09T05:38:13.555Z,101509.41
2022-10-09T05:39:16.947Z,101505.88
2022-10-09T05:40:19.891Z,101507.81
2022-10-09T05:41:23.029Z,101506.97
2022-10-09T05:42:26.031Z,101513.13
2022-10-09T05:43:35.435Z,101513.97
2022-10-09T05:44:38.269Z,101515.78
2022-10-09T05:45:41.461Z,101518.47
2022-10-09T05:46:44.338Z,101515.88
2022-10-09T05:47:47.338Z,101523.97
2022-10-09T05:48:55.018Z,101519.69
2022-10-09T05:49:58.062Z,101525.75
2022-10-09T05:51:23.184Z,101520.72
2022-10-09T05:52:26.067Z,101522.50
2022-10-09T05:53:29.459Z,101523.53
2022-10-09T05:54:32.437Z,101527.78
2022-10-09T05:55:35.406Z,101531.66
2022-10-09T05:56:39.523Z,101528.28
2022-10-09T05:57:42.701Z,101543.22
2022-10-09T05:58:57.218Z,101533.44
2022-10-09T06:00:00.025Z,101538.06
2022-10-09T06:01:02.975Z,101539.91
2022-10-09T06:02:05.950Z,101539.16
2022-10-09T06:03:09.096Z,101540.81
2022-10-09T06:04:29.972Z,101541.88
2022-10-09T06:05:33.127Z,101548.09
2022-10-09T06:06:39.225Z,101546.34
2022-10-09T06:07:42.158Z,101548.25
2022-10-09T06:08:45.523Z,101548.34
2022-10-09T06:09:48.524Z,101557.09
2022-10-09T06:10:51.367Z,101552.03
2022-10-09T06:11:55.672Z,101542.44
2022-10-09T06:12:58.493Z,101548.56
2022-10-09T06:14:04.796Z,101544.78
2022-10-09T06:15:08.328Z,101553.88
2022-10-09T06:16:13.646Z,101551.25
2022-10-09T06:17:16.822Z,101547.97
2022-10-09T06:18:20.244Z,101554.25
2022-10-09T06:19:23.317Z,101559.59
2022-10-09T06:20:26.488Z,101563.00
2022-10-09T06:21:30.201Z,101564.06
2022-10-09T06:22:33.034Z,101556.31
2022-10-09T06:23:36.578Z,101558.31
2022-10-09T06:24:39.664Z,101563.59
2022-10-09T06:25:52.387Z,101565.41
2022-10-09T06:26:55.481Z,101569.88
2022-10-09T06:27:58.445Z,101569.06
2022-10-09T06:29:02.989Z,101573.34
2022-10-09T06:30:06.664Z,101575.25
2022-10-09T06:31:20.149Z,101579.38
2022-10-09T06:32:23.147Z,101584.88
2022-10-09T06:33:26.038Z,101582.97
2022-10-09T06:34:29.186Z,101579.47
2022-10-09T06:35:35.450Z,101576.47
2022-10-09T06:36:38.415Z,101581.19
2022-10-09T06:37:41.479Z,101582.97
2022-10-09T06:38:45.739Z,101585.56
2022-10-09T06:39:48.705Z,101591.72
2022-10-09T06:40:51.480Z,101588.91
2022-10-09T06:41:54.364Z,54902.94
2022-10-09T06:43:13.394Z,54902.94
2022-10-09T06:44:17.385Z,54902.94
2022-10-09T06:45:20.489Z,54902.94
2022-10-09T06:46:27.885Z,54902.94
2022-10-09T06:47:31.138Z,54902.94
2022-10-09T06:48:36.716Z,54902.94
2022-10-09T06:49:39.794Z,54902.94
2022-10-09T06:50:42.800Z,54902.94
2022-10-09T06:51:45.993Z,54902.94
2022-10-09T06:52:51.077Z,54902.94
2022-10-09T06:53:58.907Z,54902.94
2022-10-09T06:55:01.827Z,54902.94
2022-10-09T06:56:06.372Z,54902.94
2022-10-09T06:57:09.310Z,54902.94
2022-10-09T06:58:12.514Z,54902.94
2022-10-09T06:59:15.636Z,54902.94
2022-10-09T07:00:18.590Z,54902.94
2022-10-09T07:01:26.907Z,54902.94
2022-10-09T07:02:32.827Z,54902.94
2022-10-09T07:03:36.937Z,54902.94
2022-10-09T07:04:39.887Z,54902.94
2022-10-09T07:05:42.963Z,54902.94
2022-10-09T07:06:48.089Z,54902.94
2022-10-09T07:07:51.148Z,54902.94
2022-10-09T07:09:04.913Z,54902.94
2022-10-09T07:10:09.625Z,54902.94
2022-10-09T07:11:27.733Z,54902.94
2022-10-09T07:12:30.748Z,54902.94
2022-10-09T07:13:34.012Z,54902.94
2022-10-09T07:14:37.062Z,54902.94
2022-10-09T07:15:46.078Z,54902.94
2022-10-09T07:16:49.738Z,54902.94
2022-10-09T07:17:52.680Z,54902.94
2022-10-09T07:18:55.889Z,54902.94
2022-10-09T07:19:59.107Z,54902.94
2022-10-09T07:21:04.725Z,54902.94
2022-10-09T07:22:11.647Z,54902.94
2022-10-09T07:23:14.507Z,54902.94
2022-10-09T07:24:20.574Z,54902.94
2022-10-09T07:25:23.858Z,54902.94
2022-10-09T07:26:30.005Z,54902.94
2022-10-09T07:27:33.314Z,54902.94
2022-10-09T07:28:36.505Z,54902.94
2022-10-09T07:29:39.507Z,54902.94
2022-10-09T07:30:42.456Z,54902.94
2022-10-09T07:31:45.703Z,54902.94
2022-10-09T07:32:51.659Z,54902.94
2022-10-09T07:33:56.917Z,54902.94
2022-10-09T07:34:59.964Z,54902.94
2022-10-09T07:36:04.936Z,54902.94
2022-10-09T07:37:08.166Z,54902.94
2022-10-09T07:38:10.988Z,54902.94
2022-10-09T07:39:13.809Z,54902.94
2022-10-09T07:40:16.901Z,54902.94
2022-10-09T07:41:21.974Z,54902.94
2022-10-09T07:42:24.898Z,54902.94
2022-10-09T07:43:28.312Z,54902.94
2022-10-09T07:44:31.319Z,54902.94
2022-10-09T07:45:35.537Z,54902.94
2022-10-09T07:46:38.966Z,54902.94
2022-10-09T07:47:41.860Z,54902.94
2022-10-09T07:48:45.200Z,54902.94
2022-10-09T07:49:48.168Z,54902.94
2022-10-09T07:50:51.163Z,54902.94
2022-10-09T07:51:54.231Z,54902.94
2022-10-09T07:52:57.324Z,54902.94
2022-10-09T07:54:02.220Z,54902.94
2022-10-09T07:55:05.622Z,54902.94
2022-10-09T07:56:15.521Z,54902.94
2022-10-09T07:57:18.537Z,54902.94
2022-10-09T07:58:21.513Z,54902.94
2022-10-09T07:59:24.883Z,54902.94
2022-10-09T08:00:28.005Z,54902.94
2022-10-09T08:01:32.893Z,54902.94
2022-10-09T08:02:36.143Z,54902.94
2022-10-09T08:03:39.212Z,54902.94
2022-10-09T08:04:42.131Z,54902.94
2022-10-09T08:05:53.327Z,54902.94
2022-10-09T08:06:58.524Z,54902.94
2022-10-09T08:08:01.687Z,54902.94
2022-10-09T08:09:07.692Z,54902.94
2022-10-09T08:10:10.832Z,54902.94
2022-10-09T08:11:17.840Z,54902.94
2022-10-09T08:12:20.677Z,54902.94
2022-10-09T08:13:23.833Z,54902.94
2022-10-09T08:14:27.430Z,54902.94
2022-10-09T08:15:30.428Z,54902.94
2022-10-09T08:16:33.451Z,54902.94
2022-10-09T08:17:36.508Z,54902.94
2022-10-09T08:18:39.545Z,54902.94
2022-10-09T08:19:42.618Z,54902.94
2022-10-09T08:20:56.039Z,54902.94
2022-10-09T08:22:03.148Z,54902.94
2022-10-09T08:23:06.939Z,54902.94
2022-10-09T08:24:11.933Z,54902.94
2022-10-09T08:25:14.952Z,54902.94
2022-10-09T08:26:20.996Z,54902.94
2022-10-09T08:27:24.395Z,54902.94
2022-10-09T08:28:27.546Z,54902.94
2022-10-09T08:29:30.583Z,54902.94
2022-10-09T08:30:36.035Z,54902.94
2022-10-09T08:31:39.551Z,54902.94
2022-10-09T08:32:42.598Z,54902.94
2022-10-09T08:33:45.608Z,54902.94
2022-10-09T08:34:48.528Z,54902.94
2022-10-09T08:35:53.092Z,54902.94
2022-10-09T08:36:56.257Z,54902.94
2022-10-09T08:37:59.132Z,54902.94
2022-10-09T08:39:02.327Z,54902.94
2022-10-09T08:40:07.228Z,54902.94
2022-10-09T08:41:29.230Z,54902.94
2022-10-09T08:42:53.100Z,54902.94
2022-10-09T08:44:10.162Z,54902.94
2022-10-09T08:45:19.598Z,54902.94
2022-10-09T08:46:29.407Z,54902.94
2022-10-09T08:47:45.810Z,54902.94
2022-10-09T08:48:50.600Z,54902.94
2022-10-09T08:50:09.764Z,54902.94
2022-10-09T08:51:27.133Z,54902.94
2022-10-09T08:52:49.119Z,54902.94
2022-10-09T08:54:25.205Z,54902.94
2022-10-09T08:55:40.133Z,54902.94
2022-10-09T08:56:43.207Z,54902.94
2022-10-09T08:57:54.048Z,54902.94
2022-10-09T08:58:57.475Z,54902.94
2022-10-09T09:00:00.397Z,54902.94
2022-10-09T09:01:32.896Z,54902.94
2022-10-09T09:03:23.466Z,54902.94
2022-10-09T09:04:45.137Z,54902.94
2022-10-09T09:06:25.134Z,54902.94
2022-10-09T09:08:08.060Z,54902.94
2022-10-09T09:09:47.635Z,54902.94
2022-10-09T09:11:22.058Z,54902.94
2022-10-09T09:12:48.524Z,54902.94
2022-10-09T09:14:41.284Z,54902.94
2022-10-09T09:16:18.381Z,54902.94
2022-10-09T09:17:45.745Z,54902.94
2022-10-09T09:19:02.455Z,54902.94
2022-10-09T09:20:25.901Z,54902.94
2022-10-09T09:21:47.432Z,54902.94
2022-10-09T09:22:51.278Z,54902.94
2022-10-09T09:23:55.292Z,54902.94
2022-10-09T09:25:01.237Z,54902.94
2022-10-09T09:26:10.975Z,54902.94
2022-10-09T09:27:21.251Z,54902.94
2022-10-09T09:28:33.307Z,54902.94
2022-10-09T09:29:48.755Z,54902.94
2022-10-09T09:31:25.543Z,54902.94
2022-10-09T09:32:30.638Z,54902.94
2022-10-09T09:33:58.520Z,54902.94
2022-10-09T09:35:50.977Z,54902.94
2022-10-09T09:36:59.289Z,54902.94
2022-10-09T09:38:02.750Z,54902.94
2022-10-09T09:40:38.256Z,54902.94
2022-10-09T09:41:44.123Z,54902.94
2022-10-09T09:42:47.764Z,54902.94
2022-10-09T09:43:50.869Z,54902.94
2022-10-09T09:45:03.887Z,54902.94
2022-10-09T09:46:19.249Z,54902.94
2022-10-09T09:47:32.948Z,54902.94
2022-10-09T09:48:43.634Z,54902.94
2022-10-09T09:50:00.997Z,54902.94
2022-10-09T09:51:28.093Z,54902.94
2022-10-09T09:52:40.079Z,54902.94
2022-10-09T09:53:47.125Z,54902.94
2022-10-09T09:54:50.317Z,54902.94
2022-10-09T09:55:54.749Z,54902.94
2022-10-09T09:57:13.063Z,54902.94
2022-10-09T09:58:18.279Z,54902.94
2022-10-09T09:59:41.380Z,54902.94
2022-10-09T10:00:57.074Z,54902.94
2022-10-09T10:02:22.978Z,54902.94
2022-10-09T10:03:26.387Z,54902.94
2022-10-09T10:04:29.677Z,54902.94
2022-10-09T10:05:37.783Z,54902.94
2022-10-09T10:06:44.795Z,54902.94
2022-10-09T10:07:50.319Z,54902.94
2022-10-09T10:09:19.584Z,54902.94
2022-10-09T10:10:27.446Z,54902.94
2022-10-09T10:11:34.517Z,54902.94
2022-10-09T10:13:00.752Z,54902.94
2022-10-09T10:14:09.020Z,54902.94
2022-10-09T10:15:22.511Z,54902.94
2022-10-09T10:16:32.177Z,54902.94
2022-10-09T10:17:36.965Z,54902.94
2022-10-09T10:18:43.589Z,54902.94
2022-10-09T10:19:50.905Z,54902.94
2022-10-09T10:21:03.762Z,54902.94
2022-10-09T10:22:26.143Z,54902.94
2022-10-09T10:23:39.742Z,54902.94
2022-10-09T10:24:46.837Z,54902.94
2022-10-09T10:25:55.244Z,54902.94
2022-10-09T10:27:09.883Z,54902.94
2022-10-09T10:28:20.910Z,54902.94
2022-10-09T10:29:46.914Z,54902.94
2022-10-09T10:30:51.906Z,54902.94
2022-10-09T10:32:21.714Z,54902.94
2022-10-09T10:33:33.093Z,54902.94
2022-10-09T10:34:53.854Z,54902.94
2022-10-09T10:35:59.111Z,54902.94
2022-10-09T10:37:13.674Z,54902.94
2022-10-09T10:38:43.542Z,54902.94
2022-10-09T10:39:54.256Z,54902.94
2022-10-09T10:41:05.479Z,54902.94
2022-10-09T10:42:16.757Z,54902.94
2022-10-09T10:43:43.745Z,54902.94
2022-10-09T10:45:11.365Z,54902.94
2022-10-09T10:46:49.089Z,54902.94
2022-10-09T10:47:56.157Z,54902.94
2022-10-09T10:49:00.662Z,54902.94
2022-10-09T10:50:04.173Z,54902.94
2022-10-09T10:51:25.486Z,54902.94
2022-10-09T10:53:00.983Z,54902.94
2022-10-09T10:54:34.255Z,54902.94
2022-10-09T10:55:37.400Z,54902.94
2022-10-09T10:57:25.192Z,54902.94
2022-10-09T10:58:43.804Z,54902.94
2022-10-09T11:00:10.952Z,54902.94
2022-10-09T11:01:29.016Z,54902.94
2022-10-09T11:03:18.786Z,54902.94
2022-10-09T11:04:31.157Z,54902.94
2022-10-09T11:06:20.998Z,54902.94
2022-10-09T11:07:38.764Z,54902.94
2022-10-09T11:09:22.470Z,54902.94
2022-10-09T11:10:46.787Z,54902.94
2022-10-09T11:12:43.367Z,54902.94
2022-10-09T11:14:19.305Z,54902.94
2022-10-09T11:15:51.306Z,54902.94
2022-10-09T11:17:10.081Z,54902.94
2022-10-09T11:18:43.419Z,54902.94
2022-10-09T11:20:15.282Z,54902.94
2022-10-09T11:21:47.764Z,54902.94
2022-10-09T11:23:31.420Z,54902.94
2022-10-09T11:24:59.857Z,54902.94
2022-10-09T11:26:46.387Z,54902.94
2022-10-09T11:28:01.988Z,54902.94
2022-10-09T11:29:18.542Z,54902.94
2022-10-09T11:30:22.045Z,54902.94
2022-10-09T11:31:45.605Z,54902.94
2022-10-09T11:33:24.020Z,54902.94
2022-10-09T11:34:41.876Z,54902.94
2022-10-09T11:35:52.777Z,54902.94
2022-10-09T11:36:56.869Z,54902.94
2022-10-09T11:38:14.138Z,54902.94
2022-10-09T11:39:25.957Z,54902.94
2022-10-09T11:40:42.377Z,54902.94
2022-10-09T11:41:47.597Z,54902.94
2022-10-09T11:43:39.958Z,54902.94
2022-10-09T11:44:56.340Z,54902.94
2022-10-09T11:46:08.195Z,54902.94
2022-10-09T11:47:38.822Z,54902.94
2022-10-09T11:48:54.116Z,54902.94
2022-10-09T11:50:40.938Z,54902.94
2022-10-09T11:52:18.452Z,54902.94
2022-10-09T11:53:30.555Z,54902.94
2022-10-09T11:54:33.889Z,54902.94
2022-10-09T11:55:37.831Z,54902.94
2022-10-09T11:57:05.823Z,54902.94
2022-10-09T11:58:25.941Z,54902.94
2022-10-09T11:59:35.277Z,54902.94
2022-10-09T12:00:38.300Z,54902.94
2022-10-09T12:01:44.665Z,54902.94
2022-10-09T12:02:59.931Z,54902.94
2022-10-09T12:04:13.376Z,54902.94
2022-10-09T12:05:43.202Z,54902.94
2022-10-09T12:06:54.414Z,54902.94
2022-10-09T12:08:26.512Z,54902.94
2022-10-09T12:09:49.328Z,54902.94
2022-10-09T12:11:00.488Z,54902.94
2022-10-09T12:12:15.297Z,54902.94
2022-10-09T12:13:36.921Z,54902.94
2022-10-09T12:14:39.836Z,54902.94
2022-10-09T12:15:56.994Z,54902.94
2022-10-09T12:17:00.377Z,54902.94
2022-10-09T12:18:44.521Z,54902.94
2022-10-09T12:19:58.567Z,54902.94
2022-10-09T12:21:08.503Z,54902.94
2022-10-09T12:22:25.368Z,54902.94
2022-10-09T12:23:33.592Z,54902.94
2022-10-09T12:24:53.620Z,54902.94
2022-10-09T12:25:57.788Z,54902.94
2022-10-09T12:27:03.344Z,54902.94
2022-10-09T12:28:13.971Z,54902.94
2022-10-09T12:29:32.229Z,54902.94
2022-10-09T12:30:47.442Z,54902.94
2022-10-09T12:31:56.797Z,54902.94
2022-10-09T12:33:28.384Z,54902.94
2022-10-09T12:34:37.290Z,54902.94
2022-10-09T12:35:45.159Z,54902.94
2022-10-09T12:36:48.618Z,54902.94
2022-10-09T12:37:52.156Z,54902.94
2022-10-09T12:38:55.842Z,54902.94
2022-10-09T12:40:21.258Z,54902.94
2022-10-09T12:41:29.911Z,54902.94
2022-10-09T12:42:33.056Z,54902.94
2022-10-09T12:43:36.504Z,54902.94
2022-10-09T12:44:40.305Z,54902.94
2022-10-09T12:45:47.225Z,54902.94
2022-10-09T12:46:51.168Z,54902.94
2022-10-09T12:47:55.337Z,54902.94
2022-10-09T12:49:01.843Z,54902.94
2022-10-09T12:50:24.527Z,54902.94
2022-10-09T12:51:30.813Z,54902.94
2022-10-09T12:52:33.948Z,54902.94
2022-10-09T12:53:49.138Z,54902.94
2022-10-09T12:54:52.331Z,54902.94
2022-10-09T12:56:00.776Z,54902.94
2022-10-09T12:57:03.837Z,54902.94
2022-10-09T12:58:43.481Z,54902.94
2022-10-09T12:59:48.326Z,54902.94
2022-10-09T13:00:55.926Z,54902.94
2022-10-09T13:02:00.336Z,54902.94
2022-10-09T13:03:03.356Z,54902.94
2022-10-09T13:04:10.663Z,54902.94
2022-10-09T13:05:13.571Z,54902.94
2022-10-09T13:06:20.654Z,54902.94
2022-10-09T13:07:27.929Z,54902.94
2022-10-09T13:08:38.040Z,54902.94
2022-10-09T13:09:41.626Z,54902.94
2022-10-09T13:10:44.674Z,54902.94
2022-10-09T13:11:59.365Z,54902.94
2022-10-09T13:13:02.438Z,54902.94
2022-10-09T13:14:05.616Z,54902.94
2022-10-09T13:15:34.093Z,54902.94
2022-10-09T13:16:47.767Z,54902.94
2022-10-09T13:17:51.534Z,54902.94
2022-10-09T13:19:00.604Z,54902.94